sensor_id;sensor_type;location;lat;lon;timestamp;P1;durP1;ratioP1;P2;durP2;ratioP2
13269;SDS011;6703;51.994;7.570;2024-02-28T00:00:05;177.18;;;47.67;;
13269;SDS011;6703;51.994;7.570;2024-02-28T00:02:37;181.33;;;49.17;;
13269;SDS011;6703;51.994;7.570;2024-02-28T00:05:05;188.13;;;44.53;;
13269;SDS011;6703;51.994;7.570;2024-02-28T00:07:34;179.65;;;47.78;;
13269;SDS011;6703;51.994;7.570;2024-02-28T00:10:03;161.87;;;46.93;;
13269;SDS011;6703;51.994;7.570;2024-02-28T00:12:32;171.15;;;44.63;;
13269;SDS011;6703;51.994;7.570;2024-02-28T00:15:01;160.13;;;44.95;;
13269;SDS011;6703;51.994;7.570;2024-02-28T00:17:29;157.50;;;42.95;;
13269;SDS011;6703;51.994;7.570;2024-02-28T00:19:58;152.48;;;43.40;;
13269;SDS011;6703;51.994;7.570;2024-02-28T00:22:26;161.82;;;43.47;;
13269;SDS011;6703;51.994;7.570;2024-02-28T00:24:54;167.00;;;46.35;;
13269;SDS011;6703;51.994;7.570;2024-02-28T00:27:23;178.27;;;47.95;;
13269;SDS011;6703;51.994;7.570;2024-02-28T00:29:51;199.30;;;51.45;;
13269;SDS011;6703;51.994;7.570;2024-02-28T00:32:19;192.97;;;49.67;;
13269;SDS011;6703;51.994;7.570;2024-02-28T00:34:47;167.55;;;47.13;;
13269;SDS011;6703;51.994;7.570;2024-02-28T00:37:15;331.13;;;56.20;;
13269;SDS011;6703;51.994;7.570;2024-02-28T00:39:43;215.50;;;52.58;;
13269;SDS011;6703;51.994;7.570;2024-02-28T00:42:12;328.00;;;50.33;;
13269;SDS011;6703;51.994;7.570;2024-02-28T00:44:41;412.55;;;53.28;;
13269;SDS011;6703;51.994;7.570;2024-02-28T00:47:09;662.88;;;51.53;;
13269;SDS011;6703;51.994;7.570;2024-02-28T00:49:37;700.17;;;53.80;;
13269;SDS011;6703;51.994;7.570;2024-02-28T00:52:06;626.80;;;50.67;;
13269;SDS011;6703;51.994;7.570;2024-02-28T00:54:33;398.30;;;44.63;;
13269;SDS011;6703;51.994;7.570;2024-02-28T00:57:02;439.73;;;43.22;;
13269;SDS011;6703;51.994;7.570;2024-02-28T00:59:30;434.10;;;44.15;;
13269;SDS011;6703;51.994;7.570;2024-02-28T01:01:59;461.60;;;42.83;;
13269;SDS011;6703;51.994;7.570;2024-02-28T01:04:28;400.20;;;42.00;;
13269;SDS011;6703;51.994;7.570;2024-02-28T01:06:56;290.90;;;39.45;;
13269;SDS011;6703;51.994;7.570;2024-02-28T01:09:24;330.67;;;38.95;;
13269;SDS011;6703;51.994;7.570;2024-02-28T01:11:52;375.90;;;40.40;;
13269;SDS011;6703;51.994;7.570;2024-02-28T01:14:20;394.33;;;40.72;;
13269;SDS011;6703;51.994;7.570;2024-02-28T01:16:48;247.63;;;32.90;;
13269;SDS011;6703;51.994;7.570;2024-02-28T01:19:17;190.60;;;30.10;;
13269;SDS011;6703;51.994;7.570;2024-02-28T01:21:45;202.20;;;31.30;;
13269;SDS011;6703;51.994;7.570;2024-02-28T01:24:13;157.07;;;26.88;;
13269;SDS011;6703;51.994;7.570;2024-02-28T01:26:41;154.85;;;26.15;;
13269;SDS011;6703;51.994;7.570;2024-02-28T01:29:09;184.80;;;27.55;;
13269;SDS011;6703;51.994;7.570;2024-02-28T01:31:37;245.70;;;29.08;;
13269;SDS011;6703;51.994;7.570;2024-02-28T01:34:05;215.10;;;30.75;;
13269;SDS011;6703;51.994;7.570;2024-02-28T01:36:34;211.45;;;31.20;;
13269;SDS011;6703;51.994;7.570;2024-02-28T01:39:02;275.95;;;31.25;;
13269;SDS011;6703;51.994;7.570;2024-02-28T01:41:31;282.75;;;31.42;;
13269;SDS011;6703;51.994;7.570;2024-02-28T01:43:59;314.00;;;30.42;;
13269;SDS011;6703;51.994;7.570;2024-02-28T01:46:27;332.15;;;31.20;;
13269;SDS011;6703;51.994;7.570;2024-02-28T01:48:55;210.35;;;28.30;;
13269;SDS011;6703;51.994;7.570;2024-02-28T01:51:25;216.82;;;27.70;;
13269;SDS011;6703;51.994;7.570;2024-02-28T01:53:55;243.90;;;28.13;;
13269;SDS011;6703;51.994;7.570;2024-02-28T01:56:24;190.20;;;28.10;;
13269;SDS011;6703;51.994;7.570;2024-02-28T01:58:53;128.13;;;24.08;;
13269;SDS011;6703;51.994;7.570;2024-02-28T02:01:22;127.28;;;24.88;;
13269;SDS011;6703;51.994;7.570;2024-02-28T02:03:50;103.38;;;23.75;;
13269;SDS011;6703;51.994;7.570;2024-02-28T02:06:18;111.18;;;24.77;;
13269;SDS011;6703;51.994;7.570;2024-02-28T02:08:46;171.10;;;28.13;;
13269;SDS011;6703;51.994;7.570;2024-02-28T02:11:17;216.10;;;30.15;;
13269;SDS011;6703;51.994;7.570;2024-02-28T02:13:49;208.45;;;28.85;;
13269;SDS011;6703;51.994;7.570;2024-02-28T02:16:17;238.10;;;32.47;;
13269;SDS011;6703;51.994;7.570;2024-02-28T02:18:46;229.40;;;33.00;;
13269;SDS011;6703;51.994;7.570;2024-02-28T02:21:15;260.43;;;33.03;;
13269;SDS011;6703;51.994;7.570;2024-02-28T02:23:46;369.67;;;36.80;;
13269;SDS011;6703;51.994;7.570;2024-02-28T02:26:15;413.90;;;39.00;;
13269;SDS011;6703;51.994;7.570;2024-02-28T02:28:43;381.67;;;38.70;;
13269;SDS011;6703;51.994;7.570;2024-02-28T02:31:12;369.48;;;36.38;;
13269;SDS011;6703;51.994;7.570;2024-02-28T02:33:40;322.05;;;35.50;;
13269;SDS011;6703;51.994;7.570;2024-02-28T02:36:10;343.17;;;35.83;;
13269;SDS011;6703;51.994;7.570;2024-02-28T02:38:38;320.15;;;35.75;;
13269;SDS011;6703;51.994;7.570;2024-02-28T02:41:07;282.87;;;34.80;;
13269;SDS011;6703;51.994;7.570;2024-02-28T02:43:35;380.90;;;37.42;;
13269;SDS011;6703;51.994;7.570;2024-02-28T02:46:03;359.95;;;36.00;;
13269;SDS011;6703;51.994;7.570;2024-02-28T02:48:32;332.77;;;35.78;;
13269;SDS011;6703;51.994;7.570;2024-02-28T02:51:00;206.43;;;31.05;;
13269;SDS011;6703;51.994;7.570;2024-02-28T02:53:28;353.60;;;36.97;;
13269;SDS011;6703;51.994;7.570;2024-02-28T02:55:56;330.23;;;37.10;;
13269;SDS011;6703;51.994;7.570;2024-02-28T02:58:26;340.10;;;35.88;;
13269;SDS011;6703;51.994;7.570;2024-02-28T03:00:54;260.55;;;35.90;;
13269;SDS011;6703;51.994;7.570;2024-02-28T03:03:22;329.67;;;38.20;;
13269;SDS011;6703;51.994;7.570;2024-02-28T03:05:50;303.92;;;36.53;;
13269;SDS011;6703;51.994;7.570;2024-02-28T03:08:19;352.70;;;40.60;;
13269;SDS011;6703;51.994;7.570;2024-02-28T03:10:47;305.17;;;37.95;;
13269;SDS011;6703;51.994;7.570;2024-02-28T03:13:15;345.30;;;40.27;;
13269;SDS011;6703;51.994;7.570;2024-02-28T03:15:44;300.98;;;40.03;;
13269;SDS011;6703;51.994;7.570;2024-02-28T03:18:12;388.63;;;42.38;;
13269;SDS011;6703;51.994;7.570;2024-02-28T03:20:40;374.70;;;41.60;;
13269;SDS011;6703;51.994;7.570;2024-02-28T03:23:08;302.73;;;40.28;;
13269;SDS011;6703;51.994;7.570;2024-02-28T03:25:36;309.83;;;39.72;;
13269;SDS011;6703;51.994;7.570;2024-02-28T03:28:04;350.75;;;41.60;;
13269;SDS011;6703;51.994;7.570;2024-02-28T03:30:32;311.85;;;38.63;;
13269;SDS011;6703;51.994;7.570;2024-02-28T03:33:02;226.27;;;34.85;;
13269;SDS011;6703;51.994;7.570;2024-02-28T03:35:30;287.80;;;36.13;;
13269;SDS011;6703;51.994;7.570;2024-02-28T03:37:58;279.90;;;35.93;;
13269;SDS011;6703;51.994;7.570;2024-02-28T03:40:26;264.83;;;35.35;;
13269;SDS011;6703;51.994;7.570;2024-02-28T03:42:54;264.33;;;34.80;;
13269;SDS011;6703;51.994;7.570;2024-02-28T03:45:22;252.27;;;34.83;;
13269;SDS011;6703;51.994;7.570;2024-02-28T03:47:50;238.88;;;33.33;;
13269;SDS011;6703;51.994;7.570;2024-02-28T03:50:19;188.80;;;32.20;;
13269;SDS011;6703;51.994;7.570;2024-02-28T03:52:47;241.57;;;35.20;;
13269;SDS011;6703;51.994;7.570;2024-02-28T03:55:15;215.50;;;34.15;;
13269;SDS011;6703;51.994;7.570;2024-02-28T03:57:46;223.27;;;35.08;;
13269;SDS011;6703;51.994;7.570;2024-02-28T04:00:15;283.08;;;35.25;;
13269;SDS011;6703;51.994;7.570;2024-02-28T04:02:43;282.67;;;35.95;;
13269;SDS011;6703;51.994;7.570;2024-02-28T04:05:11;265.50;;;34.42;;
13269;SDS011;6703;51.994;7.570;2024-02-28T04:07:41;331.80;;;37.00;;
13269;SDS011;6703;51.994;7.570;2024-02-28T04:10:09;308.27;;;37.30;;
13269;SDS011;6703;51.994;7.570;2024-02-28T04:12:37;335.50;;;36.67;;
13269;SDS011;6703;51.994;7.570;2024-02-28T04:15:06;316.65;;;38.45;;
13269;SDS011;6703;51.994;7.570;2024-02-28T04:17:38;358.50;;;39.47;;
13269;SDS011;6703;51.994;7.570;2024-02-28T04:20:08;335.20;;;39.35;;
13269;SDS011;6703;51.994;7.570;2024-02-28T04:22:36;287.42;;;38.97;;
13269;SDS011;6703;51.994;7.570;2024-02-28T04:25:08;365.27;;;41.22;;
13269;SDS011;6703;51.994;7.570;2024-02-28T04:27:36;298.33;;;38.03;;
13269;SDS011;6703;51.994;7.570;2024-02-28T04:30:06;441.13;;;42.15;;
13269;SDS011;6703;51.994;7.570;2024-02-28T04:32:34;268.08;;;37.80;;
13269;SDS011;6703;51.994;7.570;2024-02-28T04:35:03;259.67;;;36.83;;
13269;SDS011;6703;51.994;7.570;2024-02-28T04:37:33;219.55;;;35.55;;
13269;SDS011;6703;51.994;7.570;2024-02-28T04:40:03;300.23;;;38.60;;
13269;SDS011;6703;51.994;7.570;2024-02-28T04:42:32;292.55;;;38.50;;
13269;SDS011;6703;51.994;7.570;2024-02-28T04:45:00;264.75;;;37.05;;
13269;SDS011;6703;51.994;7.570;2024-02-28T04:47:43;239.52;;;36.30;;
13269;SDS011;6703;51.994;7.570;2024-02-28T04:50:11;268.60;;;36.42;;
13269;SDS011;6703;51.994;7.570;2024-02-28T04:52:39;283.10;;;37.60;;
13269;SDS011;6703;51.994;7.570;2024-02-28T04:55:07;279.80;;;38.23;;
13269;SDS011;6703;51.994;7.570;2024-02-28T04:57:37;251.52;;;37.28;;
13269;SDS011;6703;51.994;7.570;2024-02-28T05:00:05;183.27;;;32.50;;
13269;SDS011;6703;51.994;7.570;2024-02-28T05:02:34;213.90;;;35.40;;
13269;SDS011;6703;51.994;7.570;2024-02-28T05:05:02;257.88;;;36.30;;
13269;SDS011;6703;51.994;7.570;2024-02-28T05:07:31;380.95;;;41.92;;
13269;SDS011;6703;51.994;7.570;2024-02-28T05:09:59;368.20;;;42.25;;
13269;SDS011;6703;51.994;7.570;2024-02-28T05:12:28;336.08;;;40.20;;
13269;SDS011;6703;51.994;7.570;2024-02-28T05:14:57;391.45;;;42.45;;
13269;SDS011;6703;51.994;7.570;2024-02-28T05:17:25;395.85;;;42.13;;
13269;SDS011;6703;51.994;7.570;2024-02-28T05:19:53;458.52;;;45.03;;
13269;SDS011;6703;51.994;7.570;2024-02-28T05:22:23;340.90;;;40.75;;
13269;SDS011;6703;51.994;7.570;2024-02-28T05:24:51;340.08;;;40.70;;
13269;SDS011;6703;51.994;7.570;2024-02-28T05:27:20;346.58;;;39.95;;
13269;SDS011;6703;51.994;7.570;2024-02-28T05:29:49;306.83;;;38.67;;
13269;SDS011;6703;51.994;7.570;2024-02-28T05:32:19;279.40;;;38.22;;
13269;SDS011;6703;51.994;7.570;2024-02-28T05:34:47;245.20;;;36.45;;
13269;SDS011;6703;51.994;7.570;2024-02-28T05:37:16;260.98;;;36.35;;
13269;SDS011;6703;51.994;7.570;2024-02-28T05:39:45;239.45;;;38.55;;
13269;SDS011;6703;51.994;7.570;2024-02-28T05:42:13;290.98;;;38.13;;
13269;SDS011;6703;51.994;7.570;2024-02-28T05:44:46;291.40;;;39.60;;
13269;SDS011;6703;51.994;7.570;2024-02-28T05:47:14;254.93;;;37.90;;
13269;SDS011;6703;51.994;7.570;2024-02-28T05:49:44;230.40;;;36.83;;
13269;SDS011;6703;51.994;7.570;2024-02-28T05:52:11;209.52;;;36.70;;
13269;SDS011;6703;51.994;7.570;2024-02-28T05:54:40;192.25;;;37.15;;
13269;SDS011;6703;51.994;7.570;2024-02-28T05:57:09;214.30;;;37.47;;
13269;SDS011;6703;51.994;7.570;2024-02-28T05:59:37;247.57;;;39.05;;
13269;SDS011;6703;51.994;7.570;2024-02-28T06:02:05;223.23;;;37.47;;
13269;SDS011;6703;51.994;7.570;2024-02-28T06:04:33;314.08;;;39.50;;
13269;SDS011;6703;51.994;7.570;2024-02-28T06:07:03;294.03;;;41.23;;
13269;SDS011;6703;51.994;7.570;2024-02-28T06:09:32;308.75;;;42.05;;
13269;SDS011;6703;51.994;7.570;2024-02-28T06:12:00;331.42;;;41.88;;
13269;SDS011;6703;51.994;7.570;2024-02-28T06:14:29;353.90;;;43.63;;
13269;SDS011;6703;51.994;7.570;2024-02-28T06:16:57;379.60;;;46.10;;
13269;SDS011;6703;51.994;7.570;2024-02-28T06:19:25;427.83;;;48.13;;
13269;SDS011;6703;51.994;7.570;2024-02-28T06:21:54;521.47;;;50.63;;
13269;SDS011;6703;51.994;7.570;2024-02-28T06:24:23;579.03;;;53.30;;
13269;SDS011;6703;51.994;7.570;2024-02-28T06:26:54;533.08;;;52.67;;
13269;SDS011;6703;51.994;7.570;2024-02-28T06:29:22;470.63;;;51.47;;
13269;SDS011;6703;51.994;7.570;2024-02-28T06:31:50;623.42;;;56.22;;
13269;SDS011;6703;51.994;7.570;2024-02-28T06:34:19;557.92;;;54.75;;
13269;SDS011;6703;51.994;7.570;2024-02-28T06:37:01;559.47;;;54.95;;
13269;SDS011;6703;51.994;7.570;2024-02-28T06:39:31;585.03;;;56.53;;
13269;SDS011;6703;51.994;7.570;2024-02-28T06:41:59;627.72;;;57.40;;
13269;SDS011;6703;51.994;7.570;2024-02-28T06:44:27;592.58;;;60.00;;
13269;SDS011;6703;51.994;7.570;2024-02-28T06:46:55;553.25;;;56.15;;
13269;SDS011;6703;51.994;7.570;2024-02-28T06:49:23;571.35;;;58.72;;
13269;SDS011;6703;51.994;7.570;2024-02-28T06:51:52;619.70;;;59.83;;
13269;SDS011;6703;51.994;7.570;2024-02-28T06:54:20;643.35;;;62.38;;
13269;SDS011;6703;51.994;7.570;2024-02-28T06:56:50;553.00;;;58.22;;
13269;SDS011;6703;51.994;7.570;2024-02-28T06:59:17;523.83;;;57.97;;
13269;SDS011;6703;51.994;7.570;2024-02-28T07:01:45;506.58;;;57.22;;
13269;SDS011;6703;51.994;7.570;2024-02-28T07:04:13;514.15;;;57.72;;
13269;SDS011;6703;51.994;7.570;2024-02-28T07:06:41;474.30;;;55.72;;
13269;SDS011;6703;51.994;7.570;2024-02-28T07:09:09;436.25;;;54.88;;
13269;SDS011;6703;51.994;7.570;2024-02-28T07:11:38;370.25;;;54.75;;
13269;SDS011;6703;51.994;7.570;2024-02-28T07:14:08;363.95;;;53.35;;
13269;SDS011;6703;51.994;7.570;2024-02-28T07:16:36;315.75;;;50.85;;
13269;SDS011;6703;51.994;7.570;2024-02-28T07:19:04;333.20;;;50.78;;
13269;SDS011;6703;51.994;7.570;2024-02-28T07:21:32;405.00;;;56.78;;
13269;SDS011;6703;51.994;7.570;2024-02-28T07:24:00;394.40;;;56.85;;
13269;SDS011;6703;51.994;7.570;2024-02-28T07:26:29;392.75;;;56.42;;
13269;SDS011;6703;51.994;7.570;2024-02-28T07:28:57;497.67;;;58.38;;
13269;SDS011;6703;51.994;7.570;2024-02-28T07:31:26;484.75;;;59.97;;
13269;SDS011;6703;51.994;7.570;2024-02-28T07:33:54;378.10;;;54.23;;
13269;SDS011;6703;51.994;7.570;2024-02-28T07:36:22;431.17;;;58.20;;
13269;SDS011;6703;51.994;7.570;2024-02-28T07:38:50;328.23;;;53.97;;
13269;SDS011;6703;51.994;7.570;2024-02-28T07:41:20;248.50;;;49.65;;
13269;SDS011;6703;51.994;7.570;2024-02-28T07:43:47;259.80;;;50.35;;
13269;SDS011;6703;51.994;7.570;2024-02-28T07:46:15;402.67;;;54.70;;
13269;SDS011;6703;51.994;7.570;2024-02-28T07:48:45;350.02;;;54.13;;
13269;SDS011;6703;51.994;7.570;2024-02-28T07:51:13;368.23;;;54.15;;
13269;SDS011;6703;51.994;7.570;2024-02-28T07:53:42;336.13;;;52.22;;
13269;SDS011;6703;51.994;7.570;2024-02-28T07:56:15;320.08;;;50.38;;
13269;SDS011;6703;51.994;7.570;2024-02-28T07:58:43;290.05;;;49.60;;
13269;SDS011;6703;51.994;7.570;2024-02-28T08:01:11;271.17;;;48.85;;
13269;SDS011;6703;51.994;7.570;2024-02-28T08:03:40;296.63;;;50.57;;
13269;SDS011;6703;51.994;7.570;2024-02-28T08:06:10;275.77;;;50.13;;
13269;SDS011;6703;51.994;7.570;2024-02-28T08:08:38;218.80;;;48.17;;
13269;SDS011;6703;51.994;7.570;2024-02-28T08:11:06;218.48;;;46.80;;
13269;SDS011;6703;51.994;7.570;2024-02-28T08:13:34;168.07;;;46.50;;
13269;SDS011;6703;51.994;7.570;2024-02-28T08:16:03;165.90;;;47.43;;
13269;SDS011;6703;51.994;7.570;2024-02-28T08:18:33;187.63;;;49.13;;
13269;SDS011;6703;51.994;7.570;2024-02-28T08:21:02;202.90;;;47.65;;
13269;SDS011;6703;51.994;7.570;2024-02-28T08:23:31;203.15;;;48.75;;
13269;SDS011;6703;51.994;7.570;2024-02-28T08:25:59;180.40;;;49.55;;
13269;SDS011;6703;51.994;7.570;2024-02-28T08:28:27;189.00;;;50.05;;
13269;SDS011;6703;51.994;7.570;2024-02-28T08:30:56;190.55;;;48.92;;
13269;SDS011;6703;51.994;7.570;2024-02-28T08:33:23;179.73;;;51.03;;
13269;SDS011;6703;51.994;7.570;2024-02-28T08:35:52;172.48;;;49.20;;
13269;SDS011;6703;51.994;7.570;2024-02-28T08:38:20;192.15;;;52.10;;
13269;SDS011;6703;51.994;7.570;2024-02-28T08:40:50;180.80;;;50.45;;
13269;SDS011;6703;51.994;7.570;2024-02-28T08:43:20;175.82;;;51.22;;
13269;SDS011;6703;51.994;7.570;2024-02-28T08:45:49;171.75;;;51.78;;
13269;SDS011;6703;51.994;7.570;2024-02-28T08:48:18;180.35;;;50.58;;
13269;SDS011;6703;51.994;7.570;2024-02-28T08:50:45;179.27;;;52.38;;
13269;SDS011;6703;51.994;7.570;2024-02-28T08:53:13;159.23;;;50.45;;
13269;SDS011;6703;51.994;7.570;2024-02-28T08:55:42;153.27;;;48.92;;
13269;SDS011;6703;51.994;7.570;2024-02-28T08:58:11;155.70;;;51.45;;
13269;SDS011;6703;51.994;7.570;2024-02-28T09:00:40;155.30;;;49.45;;
13269;SDS011;6703;51.994;7.570;2024-02-28T09:03:08;154.55;;;51.42;;
13269;SDS011;6703;51.994;7.570;2024-02-28T09:05:36;155.05;;;50.08;;
13269;SDS011;6703;51.994;7.570;2024-02-28T09:08:05;143.35;;;49.83;;
13269;SDS011;6703;51.994;7.570;2024-02-28T09:10:37;147.98;;;51.47;;
13269;SDS011;6703;51.994;7.570;2024-02-28T09:13:04;150.20;;;50.85;;
13269;SDS011;6703;51.994;7.570;2024-02-28T09:15:35;161.57;;;53.13;;
13269;SDS011;6703;51.994;7.570;2024-02-28T09:18:04;149.18;;;50.10;;
13269;SDS011;6703;51.994;7.570;2024-02-28T09:20:32;147.13;;;50.88;;
13269;SDS011;6703;51.994;7.570;2024-02-28T09:23:00;146.93;;;49.38;;
13269;SDS011;6703;51.994;7.570;2024-02-28T09:25:28;141.50;;;49.80;;
13269;SDS011;6703;51.994;7.570;2024-02-28T09:27:58;144.82;;;50.75;;
13269;SDS011;6703;51.994;7.570;2024-02-28T09:30:28;131.95;;;46.35;;
13269;SDS011;6703;51.994;7.570;2024-02-28T09:33:09;125.05;;;45.33;;
13269;SDS011;6703;51.994;7.570;2024-02-28T09:35:39;128.18;;;47.88;;
13269;SDS011;6703;51.994;7.570;2024-02-28T09:38:06;138.65;;;49.33;;
13269;SDS011;6703;51.994;7.570;2024-02-28T09:40:34;122.78;;;46.58;;
13269;SDS011;6703;51.994;7.570;2024-02-28T09:43:03;125.65;;;46.85;;
13269;SDS011;6703;51.994;7.570;2024-02-28T09:45:31;123.00;;;46.03;;
13269;SDS011;6703;51.994;7.570;2024-02-28T09:47:59;121.82;;;46.65;;
13269;SDS011;6703;51.994;7.570;2024-02-28T09:50:31;119.82;;;46.25;;
13269;SDS011;6703;51.994;7.570;2024-02-28T09:53:00;113.87;;;44.53;;
13269;SDS011;6703;51.994;7.570;2024-02-28T09:55:36;111.55;;;44.50;;
13269;SDS011;6703;51.994;7.570;2024-02-28T09:58:04;113.22;;;44.95;;
13269;SDS011;6703;51.994;7.570;2024-02-28T10:00:32;123.00;;;47.05;;
13269;SDS011;6703;51.994;7.570;2024-02-28T10:03:02;114.90;;;45.75;;
13269;SDS011;6703;51.994;7.570;2024-02-28T10:05:33;120.67;;;47.20;;
13269;SDS011;6703;51.994;7.570;2024-02-28T10:08:02;129.75;;;48.13;;
13269;SDS011;6703;51.994;7.570;2024-02-28T10:10:29;126.07;;;48.78;;
13269;SDS011;6703;51.994;7.570;2024-02-28T10:12:57;122.88;;;47.67;;
13269;SDS011;6703;51.994;7.570;2024-02-28T10:15:27;120.50;;;47.08;;
13269;SDS011;6703;51.994;7.570;2024-02-28T10:17:56;120.90;;;48.40;;
13269;SDS011;6703;51.994;7.570;2024-02-28T10:20:24;127.00;;;51.25;;
13269;SDS011;6703;51.994;7.570;2024-02-28T10:22:54;126.43;;;49.58;;
13269;SDS011;6703;51.994;7.570;2024-02-28T10:25:22;125.65;;;49.50;;
13269;SDS011;6703;51.994;7.570;2024-02-28T10:27:50;129.20;;;51.05;;
13269;SDS011;6703;51.994;7.570;2024-02-28T10:30:18;123.70;;;50.92;;
13269;SDS011;6703;51.994;7.570;2024-02-28T10:32:49;124.83;;;49.03;;
13269;SDS011;6703;51.994;7.570;2024-02-28T10:35:17;127.15;;;50.65;;
13269;SDS011;6703;51.994;7.570;2024-02-28T10:37:46;131.57;;;52.80;;
13269;SDS011;6703;51.994;7.570;2024-02-28T10:40:16;129.63;;;50.58;;
13269;SDS011;6703;51.994;7.570;2024-02-28T10:42:44;131.38;;;52.10;;
13269;SDS011;6703;51.994;7.570;2024-02-28T10:45:14;125.73;;;51.03;;
13269;SDS011;6703;51.994;7.570;2024-02-28T10:48:00;130.20;;;52.13;;
13269;SDS011;6703;51.994;7.570;2024-02-28T10:50:29;122.57;;;49.92;;
13269;SDS011;6703;51.994;7.570;2024-02-28T10:52:57;113.80;;;45.60;;
13269;SDS011;6703;51.994;7.570;2024-02-28T10:55:31;119.10;;;50.97;;
13269;SDS011;6703;51.994;7.570;2024-02-28T10:58:01;114.38;;;49.00;;
13269;SDS011;6703;51.994;7.570;2024-02-28T11:00:31;114.40;;;46.47;;
13269;SDS011;6703;51.994;7.570;2024-02-28T11:02:59;122.88;;;50.05;;
13269;SDS011;6703;51.994;7.570;2024-02-28T11:05:36;123.35;;;52.63;;
13269;SDS011;6703;51.994;7.570;2024-02-28T11:08:07;123.50;;;50.38;;
13269;SDS011;6703;51.994;7.570;2024-02-28T11:10:41;102.00;;;44.23;;
13269;SDS011;6703;51.994;7.570;2024-02-28T11:13:10;106.80;;;45.80;;
13269;SDS011;6703;51.994;7.570;2024-02-28T11:15:38;104.63;;;45.20;;
13269;SDS011;6703;51.994;7.570;2024-02-28T11:18:07;108.88;;;47.03;;
13269;SDS011;6703;51.994;7.570;2024-02-28T11:20:36;95.63;;;40.88;;
13269;SDS011;6703;51.994;7.570;2024-02-28T11:23:05;99.13;;;45.50;;
13269;SDS011;6703;51.994;7.570;2024-02-28T11:25:35;114.35;;;47.92;;
13269;SDS011;6703;51.994;7.570;2024-02-28T11:28:05;100.45;;;43.60;;
13269;SDS011;6703;51.994;7.570;2024-02-28T11:30:33;99.07;;;42.55;;
13269;SDS011;6703;51.994;7.570;2024-02-28T11:33:03;109.15;;;46.03;;
13269;SDS011;6703;51.994;7.570;2024-02-28T11:35:32;112.47;;;49.63;;
13269;SDS011;6703;51.994;7.570;2024-02-28T11:38:00;102.88;;;46.45;;
13269;SDS011;6703;51.994;7.570;2024-02-28T11:40:27;102.40;;;47.10;;
13269;SDS011;6703;51.994;7.570;2024-02-28T11:42:56;105.87;;;46.83;;
13269;SDS011;6703;51.994;7.570;2024-02-28T11:45:27;106.95;;;46.80;;
13269;SDS011;6703;51.994;7.570;2024-02-28T11:47:56;110.85;;;49.28;;
13269;SDS011;6703;51.994;7.570;2024-02-28T11:50:25;105.65;;;48.63;;
13269;SDS011;6703;51.994;7.570;2024-02-28T11:52:56;105.30;;;48.55;;
13269;SDS011;6703;51.994;7.570;2024-02-28T11:55:26;101.45;;;46.80;;
13269;SDS011;6703;51.994;7.570;2024-02-28T11:57:53;101.78;;;45.90;;
13269;SDS011;6703;51.994;7.570;2024-02-28T12:00:22;94.53;;;44.85;;
13269;SDS011;6703;51.994;7.570;2024-02-28T12:02:52;99.95;;;46.40;;
13269;SDS011;6703;51.994;7.570;2024-02-28T12:05:24;102.90;;;47.28;;
13269;SDS011;6703;51.994;7.570;2024-02-28T12:07:52;92.45;;;44.55;;
13269;SDS011;6703;51.994;7.570;2024-02-28T12:10:22;92.22;;;44.25;;
13269;SDS011;6703;51.994;7.570;2024-02-28T12:12:50;85.13;;;41.67;;
13269;SDS011;6703;51.994;7.570;2024-02-28T12:15:19;82.57;;;39.40;;
13269;SDS011;6703;51.994;7.570;2024-02-28T12:17:47;77.05;;;38.35;;
13269;SDS011;6703;51.994;7.570;2024-02-28T12:20:16;81.25;;;40.65;;
13269;SDS011;6703;51.994;7.570;2024-02-28T12:22:44;84.25;;;40.60;;
13269;SDS011;6703;51.994;7.570;2024-02-28T12:25:12;91.17;;;44.17;;
13269;SDS011;6703;51.994;7.570;2024-02-28T12:27:42;92.47;;;45.58;;
13269;SDS011;6703;51.994;7.570;2024-02-28T12:30:10;86.47;;;43.95;;
13269;SDS011;6703;51.994;7.570;2024-02-28T12:32:39;77.30;;;39.78;;
13269;SDS011;6703;51.994;7.570;2024-02-28T12:35:07;77.17;;;39.70;;
13269;SDS011;6703;51.994;7.570;2024-02-28T12:37:36;76.68;;;38.60;;
13269;SDS011;6703;51.994;7.570;2024-02-28T12:40:06;78.88;;;38.92;;
13269;SDS011;6703;51.994;7.570;2024-02-28T12:42:35;80.57;;;37.92;;
13269;SDS011;6703;51.994;7.570;2024-02-28T12:45:06;76.57;;;38.58;;
13269;SDS011;6703;51.994;7.570;2024-02-28T12:47:35;77.47;;;38.58;;
13269;SDS011;6703;51.994;7.570;2024-02-28T12:50:04;77.45;;;37.17;;
13269;SDS011;6703;51.994;7.570;2024-02-28T12:52:36;80.88;;;38.50;;
13269;SDS011;6703;51.994;7.570;2024-02-28T12:55:04;77.35;;;38.67;;
13269;SDS011;6703;51.994;7.570;2024-02-28T12:57:32;69.15;;;35.35;;
13269;SDS011;6703;51.994;7.570;2024-02-28T13:00:00;72.50;;;37.65;;
13269;SDS011;6703;51.994;7.570;2024-02-28T13:02:27;76.35;;;38.80;;
13269;SDS011;6703;51.994;7.570;2024-02-28T13:04:57;70.00;;;36.50;;
13269;SDS011;6703;51.994;7.570;2024-02-28T13:07:25;72.07;;;36.58;;
13269;SDS011;6703;51.994;7.570;2024-02-28T13:09:54;77.47;;;37.58;;
13269;SDS011;6703;51.994;7.570;2024-02-28T13:12:22;86.20;;;39.22;;
13269;SDS011;6703;51.994;7.570;2024-02-28T13:14:51;75.40;;;38.20;;
13269;SDS011;6703;51.994;7.570;2024-02-28T13:17:19;74.22;;;38.10;;
13269;SDS011;6703;51.994;7.570;2024-02-28T13:19:47;76.53;;;38.30;;
13269;SDS011;6703;51.994;7.570;2024-02-28T13:22:16;73.53;;;36.13;;
13269;SDS011;6703;51.994;7.570;2024-02-28T13:24:44;71.73;;;37.17;;
13269;SDS011;6703;51.994;7.570;2024-02-28T13:27:13;79.20;;;38.67;;
13269;SDS011;6703;51.994;7.570;2024-02-28T13:29:41;72.82;;;36.72;;
13269;SDS011;6703;51.994;7.570;2024-02-28T13:32:08;73.63;;;36.85;;
13269;SDS011;6703;51.994;7.570;2024-02-28T13:34:36;74.18;;;36.45;;
13269;SDS011;6703;51.994;7.570;2024-02-28T13:37:05;92.90;;;39.63;;
13269;SDS011;6703;51.994;7.570;2024-02-28T13:39:33;70.35;;;36.05;;
13269;SDS011;6703;51.994;7.570;2024-02-28T13:42:01;75.90;;;37.60;;
13269;SDS011;6703;51.994;7.570;2024-02-28T13:44:34;72.38;;;36.47;;
13269;SDS011;6703;51.994;7.570;2024-02-28T13:47:02;74.20;;;36.42;;
13269;SDS011;6703;51.994;7.570;2024-02-28T13:49:31;72.50;;;36.17;;
13269;SDS011;6703;51.994;7.570;2024-02-28T13:51:59;66.60;;;34.20;;
13269;SDS011;6703;51.994;7.570;2024-02-28T13:54:26;75.75;;;36.38;;
13269;SDS011;6703;51.994;7.570;2024-02-28T13:56:55;69.65;;;35.25;;
13269;SDS011;6703;51.994;7.570;2024-02-28T13:59:23;70.07;;;34.58;;
13269;SDS011;6703;51.994;7.570;2024-02-28T14:01:52;71.25;;;35.42;;
13269;SDS011;6703;51.994;7.570;2024-02-28T14:04:20;75.72;;;36.17;;
13269;SDS011;6703;51.994;7.570;2024-02-28T14:06:48;69.30;;;35.58;;
13269;SDS011;6703;51.994;7.570;2024-02-28T14:09:17;69.35;;;35.70;;
13269;SDS011;6703;51.994;7.570;2024-02-28T14:11:45;72.03;;;36.00;;
13269;SDS011;6703;51.994;7.570;2024-02-28T14:14:12;72.30;;;35.47;;
13269;SDS011;6703;51.994;7.570;2024-02-28T14:16:41;70.70;;;36.58;;
13269;SDS011;6703;51.994;7.570;2024-02-28T14:19:10;69.13;;;34.95;;
13269;SDS011;6703;51.994;7.570;2024-02-28T14:21:39;71.22;;;35.42;;
13269;SDS011;6703;51.994;7.570;2024-02-28T14:24:07;71.87;;;36.53;;
13269;SDS011;6703;51.994;7.570;2024-02-28T14:26:35;71.70;;;35.20;;
13269;SDS011;6703;51.994;7.570;2024-02-28T14:29:03;69.43;;;35.40;;
13269;SDS011;6703;51.994;7.570;2024-02-28T14:31:32;72.85;;;35.80;;